Champions Gate, Florida
Current Conditions -  °F | °C
As of 8:50 AM on Friday 24 Oct 2014 (Local Time) from KISM Reporting Station
Clear Clear  
Wind Chill: 66°   Ceiling: Unl
Heat Index: 66°   Visibility: 10mi
Dew Point: 57°   Wind: 12mph
Humidity: 73%   Direction: 350°N
Pressure: 29.99"   Gusts: NA
Location:  28.2515°N, 81.6002°W
Report Text: KISM 241250Z 35010KT 10SM SKC 19/14 A2999
Loading
Personal Weather Stations






























Interactive Weather Map
Tropical Storm Tracking
New forecast layout! Learn more

10-Day Weather Forecast

Advertisements
Track Severe Weather on mobile